createdAt,value
2018-06-16T00:00:56.275Z,1007.02
2018-06-16T00:01:56.268Z,1007.01
2018-06-16T00:02:56.266Z,1007.03
2018-06-16T00:03:56.242Z,1007.05
2018-06-16T00:04:56.233Z,1007.05
2018-06-16T00:05:56.225Z,1007.05
2018-06-16T00:06:56.266Z,1007.06
2018-06-16T00:07:56.199Z,1007.06
2018-06-16T00:08:56.190Z,1007.05
2018-06-16T00:09:56.188Z,1007.06
2018-06-16T00:10:56.167Z,1007.05
2018-06-16T00:11:56.163Z,1007.04
2018-06-16T00:12:56.146Z,1007.07
2018-06-16T00:13:56.136Z,1007.05
2018-06-16T00:14:56.128Z,1007.08
2018-06-16T00:15:56.119Z,1007.08
2018-06-16T00:16:56.104Z,1007.07
2018-06-16T00:17:56.091Z,1007.08
2018-06-16T00:18:56.080Z,1007.08
2018-06-16T00:19:56.072Z,1007.05
2018-06-16T00:20:56.057Z,1007.04
2018-06-16T00:21:56.046Z,1007.08
2018-06-16T00:22:56.040Z,1007.03
2018-06-16T00:23:56.030Z,1007.04
2018-06-16T00:24:56.012Z,1007.05
2018-06-16T00:25:56.003Z,1007.05
2018-06-16T00:26:55.999Z,1007.04
2018-06-16T00:27:55.979Z,1007.05
2018-06-16T00:28:55.974Z,1007.05
2018-06-16T00:29:55.960Z,1007.05
2018-06-16T00:30:55.951Z,1007.03
2018-06-16T00:31:55.936Z,1007.02
2018-06-16T00:32:55.926Z,1007
2018-06-16T00:33:55.914Z,1007.03
2018-06-16T00:34:55.902Z,1007.05
2018-06-16T00:35:55.893Z,1007.06
2018-06-16T00:36:55.880Z,1007.05
2018-06-16T00:37:55.871Z,1007.03
2018-06-16T00:38:55.859Z,1007.07
2018-06-16T00:39:55.849Z,1007
2018-06-16T00:40:55.840Z,1007.01
2018-06-16T00:41:55.828Z,1006.97
2018-06-16T00:42:55.813Z,1006.95
2018-06-16T00:43:55.806Z,1006.95
2018-06-16T00:44:55.794Z,1006.93
2018-06-16T00:45:55.781Z,1006.97
2018-06-16T00:46:55.774Z,1006.95
2018-06-16T00:47:55.758Z,1006.97
2018-06-16T00:48:55.749Z,1006.98
2018-06-16T00:49:55.738Z,1006.97
2018-06-16T00:50:55.729Z,1007
2018-06-16T00:51:55.718Z,1006.98
2018-06-16T00:52:55.741Z,1006.99
2018-06-16T00:53:55.695Z,1007.04
2018-06-16T00:54:55.683Z,1007.03
2018-06-16T00:55:55.672Z,1007.04
2018-06-16T00:56:55.661Z,1007.03
2018-06-16T00:57:55.649Z,1006.99
2018-06-16T00:58:55.642Z,1007.03
2018-06-16T00:59:55.830Z,1006.98
2018-06-16T01:00:55.622Z,1006.98
2018-06-16T01:01:55.606Z,1006.95
2018-06-16T01:02:55.592Z,1006.94
2018-06-16T01:03:55.583Z,1006.94
2018-06-16T01:04:55.570Z,1006.98
2018-06-16T01:05:55.561Z,1006.96
2018-06-16T01:06:55.550Z,1006.97
2018-06-16T01:07:55.542Z,1006.95
2018-06-16T01:08:55.529Z,1006.91
2018-06-16T01:09:55.520Z,1006.95
2018-06-16T01:10:55.505Z,1006.92
2018-06-16T01:11:55.492Z,1006.91
2018-06-16T01:12:55.481Z,1006.91
2018-06-16T01:13:55.470Z,1006.9
2018-06-16T01:14:55.461Z,1006.92
2018-06-16T01:15:55.447Z,1006.9
2018-06-16T01:16:55.440Z,1006.87
2018-06-16T01:17:55.425Z,1006.92
2018-06-16T01:18:55.414Z,1006.89
2018-06-16T01:19:55.407Z,1006.89
2018-06-16T01:20:55.393Z,1006.88
2018-06-16T01:21:55.381Z,1006.92
2018-06-16T01:22:55.372Z,1006.9
2018-06-16T01:23:55.363Z,1006.91
2018-06-16T01:24:55.348Z,1006.89
2018-06-16T01:25:55.336Z,1006.93
2018-06-16T01:26:55.323Z,1006.89
2018-06-16T01:27:55.314Z,1006.91
2018-06-16T01:28:55.300Z,1006.9
2018-06-16T01:29:55.290Z,1006.88
2018-06-16T01:30:55.278Z,1006.88
2018-06-16T01:31:55.267Z,1006.88
2018-06-16T01:32:55.255Z,1006.88
2018-06-16T01:33:55.245Z,1006.87
2018-06-16T01:34:55.231Z,1006.9
2018-06-16T01:35:55.221Z,1006.9
2018-06-16T01:36:55.209Z,1006.88
2018-06-16T01:37:55.197Z,1006.89
2018-06-16T01:38:55.197Z,1006.94
2018-06-16T01:39:55.180Z,1006.89
2018-06-16T01:40:55.163Z,1006.91
2018-06-16T01:41:55.204Z,1006.88
2018-06-16T01:42:55.140Z,1006.86
2018-06-16T01:43:55.129Z,1006.87
2018-06-16T01:44:55.117Z,1006.89
2018-06-16T01:45:55.104Z,1006.88
2018-06-16T01:46:55.094Z,1006.89
2018-06-16T01:47:55.133Z,1006.86
2018-06-16T01:48:55.072Z,1006.87
2018-06-16T01:49:55.061Z,1006.87
2018-06-16T01:50:55.099Z,1006.87
2018-06-16T01:51:55.037Z,1006.86
2018-06-16T01:52:55.024Z,1006.83
2018-06-16T01:53:55.014Z,1006.89
2018-06-16T01:54:55.004Z,1006.88
2018-06-16T01:55:54.991Z,1006.85
2018-06-16T01:56:54.981Z,1006.88
2018-06-16T01:57:54.967Z,1006.9
2018-06-16T01:58:54.954Z,1006.86
2018-06-16T01:59:54.944Z,1006.88
2018-06-16T02:00:54.931Z,1006.9
2018-06-16T02:01:54.923Z,1006.88
2018-06-16T02:02:54.908Z,1006.86
2018-06-16T02:03:54.896Z,1006.88
2018-06-16T02:04:54.886Z,1006.84
2018-06-16T02:05:54.874Z,1006.86
2018-06-16T02:06:54.868Z,1006.83
2018-06-16T02:07:54.851Z,1006.82
2018-06-16T02:08:54.841Z,1006.81
2018-06-16T02:09:54.826Z,1006.81
2018-06-16T02:10:54.815Z,1006.83
2018-06-16T02:11:54.803Z,1006.83
2018-06-16T02:12:54.793Z,1006.83
2018-06-16T02:13:54.778Z,1006.84
2018-06-16T02:14:54.769Z,1006.88
2018-06-16T02:15:54.756Z,1006.87
2018-06-16T02:16:54.745Z,1006.86
2018-06-16T02:17:54.732Z,1006.81
2018-06-16T02:18:54.722Z,1006.88
2018-06-16T02:19:54.709Z,1006.89
2018-06-16T02:20:54.698Z,1006.87
2018-06-16T02:21:54.685Z,1006.84
2018-06-16T02:22:54.673Z,1006.88
2018-06-16T02:23:54.660Z,1006.87
2018-06-16T02:24:54.650Z,1006.86
2018-06-16T02:25:54.639Z,1006.89
2018-06-16T02:26:54.626Z,1006.9
2018-06-16T02:27:54.616Z,1006.88
2018-06-16T02:28:54.609Z,1006.87
2018-06-16T02:29:54.592Z,1006.87
2018-06-16T02:30:54.579Z,1006.86
2018-06-16T02:31:54.568Z,1006.89
2018-06-16T02:32:54.559Z,1006.87
2018-06-16T02:33:54.543Z,1006.89
2018-06-16T02:34:54.533Z,1006.89
2018-06-16T02:35:54.531Z,1006.9
2018-06-16T02:36:54.507Z,1006.91
2018-06-16T02:37:54.501Z,1006.87
2018-06-16T02:38:54.488Z,1006.87
2018-06-16T02:39:54.475Z,1006.85
2018-06-16T02:40:54.463Z,1006.82
2018-06-16T02:41:54.451Z,1006.83
2018-06-16T02:42:54.442Z,1006.87
2018-06-16T02:43:54.426Z,1006.86
2018-06-16T02:44:54.412Z,1006.85
2018-06-16T02:45:54.402Z,1006.84
2018-06-16T02:46:54.388Z,1006.82
2018-06-16T02:47:54.383Z,1006.88
2018-06-16T02:48:54.367Z,1006.85
2018-06-16T02:49:54.352Z,1006.82
2018-06-16T02:50:54.341Z,1006.82
2018-06-16T02:51:54.331Z,1006.79
2018-06-16T02:52:54.321Z,1006.82
2018-06-16T02:53:54.305Z,1006.82
2018-06-16T02:54:54.298Z,1006.74
2018-06-16T02:55:54.288Z,1006.78
2018-06-16T02:56:54.273Z,1006.79
2018-06-16T02:57:54.260Z,1006.77
2018-06-16T02:58:54.297Z,1006.75
2018-06-16T02:59:54.439Z,1006.76
2018-06-16T03:00:54.224Z,1006.75
2018-06-16T03:01:54.215Z,1006.77
2018-06-16T03:02:54.203Z,1006.78
2018-06-16T03:03:54.190Z,1006.77
2018-06-16T03:04:54.175Z,1006.81
2018-06-16T03:05:54.167Z,1006.83
2018-06-16T03:06:54.154Z,1006.78
2018-06-16T03:07:54.142Z,1006.78
2018-06-16T03:08:54.129Z,1006.84
2018-06-16T03:09:54.116Z,1006.8
2018-06-16T03:10:54.108Z,1006.83
2018-06-16T03:11:54.095Z,1006.81
2018-06-16T03:12:54.080Z,1006.79
2018-06-16T03:13:54.068Z,1006.8
2018-06-16T03:14:54.059Z,1006.79
2018-06-16T03:15:54.047Z,1006.78
2018-06-16T03:16:54.038Z,1006.78
2018-06-16T03:17:54.025Z,1006.75
2018-06-16T03:18:54.011Z,1006.74
2018-06-16T03:19:53.999Z,1006.78
2018-06-16T03:20:53.988Z,1006.77
2018-06-16T03:21:53.983Z,1006.79
2018-06-16T03:22:53.962Z,1006.75
2018-06-16T03:23:53.954Z,1006.78
2018-06-16T03:24:53.943Z,1006.79
2018-06-16T03:25:53.927Z,1006.76
2018-06-16T03:26:53.918Z,1006.76
2018-06-16T03:27:53.906Z,1006.75
2018-06-16T03:28:53.894Z,1006.76
2018-06-16T03:29:53.881Z,1006.74
2018-06-16T03:30:53.868Z,1006.73
2018-06-16T03:31:53.857Z,1006.73
2018-06-16T03:32:53.846Z,1006.75
2018-06-16T03:33:53.831Z,1006.74
2018-06-16T03:34:53.818Z,1006.73
2018-06-16T03:35:53.808Z,1006.73
2018-06-16T03:36:53.797Z,1006.74
2018-06-16T03:37:53.785Z,1006.72
2018-06-16T03:38:53.772Z,1006.7
2018-06-16T03:39:53.760Z,1006.71
2018-06-16T03:40:53.756Z,1006.67
2018-06-16T03:41:53.739Z,1006.68
2018-06-16T03:42:53.725Z,1006.67
2018-06-16T03:43:53.713Z,1006.67
2018-06-16T03:44:53.700Z,1006.63
2018-06-16T03:45:53.689Z,1006.67
2018-06-16T03:46:53.677Z,1006.67
2018-06-16T03:47:53.666Z,1006.65
2018-06-16T03:48:53.651Z,1006.65
2018-06-16T03:49:53.641Z,1006.58
2018-06-16T03:50:53.629Z,1006.61
2018-06-16T03:51:53.617Z,1006.63
2018-06-16T03:52:53.604Z,1006.63
2018-06-16T03:53:53.594Z,1006.62
2018-06-16T03:54:53.580Z,1006.61
2018-06-16T03:55:53.568Z,1006.65
2018-06-16T03:56:53.557Z,1006.68
2018-06-16T03:57:53.544Z,1006.67
2018-06-16T03:58:53.535Z,1006.69
2018-06-16T03:59:53.520Z,1006.69
2018-06-16T04:00:53.510Z,1006.65
2018-06-16T04:01:53.570Z,1006.68
2018-06-16T04:02:53.488Z,1006.7
2018-06-16T04:03:53.481Z,1006.69
2018-06-16T04:04:53.466Z,1006.72
2018-06-16T04:05:53.451Z,1006.68
2018-06-16T04:06:53.441Z,1006.66
2018-06-16T04:07:53.426Z,1006.69
2018-06-16T04:08:53.414Z,1006.67
2018-06-16T04:09:53.402Z,1006.67
2018-06-16T04:10:53.392Z,1006.67
2018-06-16T04:11:53.431Z,1006.68
2018-06-16T04:12:53.367Z,1006.71
2018-06-16T04:13:53.357Z,1006.67
2018-06-16T04:14:53.344Z,1006.65
2018-06-16T04:15:53.331Z,1006.69
2018-06-16T04:16:53.320Z,1006.67
2018-06-16T04:17:53.306Z,1006.66
2018-06-16T04:18:53.296Z,1006.67
2018-06-16T04:19:53.289Z,1006.64
2018-06-16T04:20:53.275Z,1006.65
2018-06-16T04:21:53.261Z,1006.67
2018-06-16T04:22:53.251Z,1006.65
2018-06-16T04:23:53.237Z,1006.66
2018-06-16T04:24:53.228Z,1006.64
2018-06-16T04:25:53.215Z,1006.6
2018-06-16T04:26:53.206Z,1006.65
2018-06-16T04:27:53.191Z,1006.65
2018-06-16T04:28:53.183Z,1006.6
2018-06-16T04:29:53.167Z,1006.63
2018-06-16T04:30:53.156Z,1006.6
2018-06-16T04:31:53.153Z,1006.62
2018-06-16T04:32:53.131Z,1006.62
2018-06-16T04:33:53.124Z,1006.62
2018-06-16T04:34:53.139Z,1006.7
2018-06-16T04:35:53.097Z,1006.71
2018-06-16T04:36:53.085Z,1006.66
2018-06-16T04:37:53.077Z,1006.62
2018-06-16T04:38:53.066Z,1006.64
2018-06-16T04:39:53.050Z,1006.66
2018-06-16T04:40:53.039Z,1006.65
2018-06-16T04:41:53.032Z,1006.63
2018-06-16T04:42:53.021Z,1006.67
2018-06-16T04:43:53.006Z,1006.7
2018-06-16T04:44:52.994Z,1006.7
2018-06-16T04:45:52.982Z,1006.68
2018-06-16T04:46:52.988Z,1006.67
2018-06-16T04:47:52.958Z,1006.71
2018-06-16T04:48:52.948Z,1006.73
2018-06-16T04:49:52.937Z,1006.74
2018-06-16T04:50:52.924Z,1006.72
2018-06-16T04:51:52.913Z,1006.72
2018-06-16T04:52:52.902Z,1006.75
2018-06-16T04:53:52.890Z,1006.79
2018-06-16T04:54:52.880Z,1006.8
2018-06-16T04:55:52.869Z,1006.77
2018-06-16T04:56:52.864Z,1006.76
2018-06-16T04:57:52.849Z,1006.79
2018-06-16T04:58:52.837Z,1006.77
2018-06-16T04:59:53.031Z,1006.74
2018-06-16T05:00:52.813Z,1006.78
2018-06-16T05:01:52.802Z,1006.73
2018-06-16T05:02:52.802Z,1006.75
2018-06-16T05:03:52.781Z,1006.74
2018-06-16T05:04:52.771Z,1006.76
2018-06-16T05:05:52.810Z,1006.7
2018-06-16T05:06:52.748Z,1006.74
2018-06-16T05:07:52.743Z,1006.72
2018-06-16T05:08:52.729Z,1006.75
2018-06-16T05:09:52.716Z,1006.7
2018-06-16T05:10:52.753Z,1006.72
2018-06-16T05:11:52.694Z,1006.72
2018-06-16T05:12:52.681Z,1006.66
2018-06-16T05:13:52.670Z,1006.69
2018-06-16T05:14:52.659Z,1006.72
2018-06-16T05:15:52.649Z,1006.72
2018-06-16T05:16:52.643Z,1006.67
2018-06-16T05:17:52.626Z,1006.65
2018-06-16T05:18:52.617Z,1006.72
2018-06-16T05:19:52.604Z,1006.7
2018-06-16T05:20:52.595Z,1006.7
2018-06-16T05:21:52.631Z,1006.7
2018-06-16T05:22:52.573Z,1006.69
2018-06-16T05:23:52.562Z,1006.66
2018-06-16T05:24:52.553Z,1006.65
2018-06-16T05:25:52.546Z,1006.65
2018-06-16T05:26:52.536Z,1006.65
2018-06-16T05:27:52.523Z,1006.65
2018-06-16T05:28:52.508Z,1006.63
2018-06-16T05:29:52.502Z,1006.6
2018-06-16T05:30:52.490Z,1006.64
2018-06-16T05:31:52.484Z,1006.64
2018-06-16T05:32:52.472Z,1006.67
2018-06-16T05:33:52.459Z,1006.65
2018-06-16T05:34:52.448Z,1006.72
2018-06-16T05:35:52.437Z,1006.69
2018-06-16T05:36:52.430Z,1006.68
2018-06-16T05:37:52.423Z,1006.69
2018-06-16T05:38:52.407Z,1006.7
2018-06-16T05:39:52.397Z,1006.72
2018-06-16T05:40:52.387Z,1006.69
2018-06-16T05:41:52.376Z,1006.7
2018-06-16T05:42:52.366Z,1006.68
2018-06-16T05:43:52.360Z,1006.68
2018-06-16T05:44:52.348Z,1006.69
2018-06-16T05:45:52.336Z,1006.72
2018-06-16T05:46:52.327Z,1006.71
2018-06-16T05:47:52.316Z,1006.7
2018-06-16T05:48:52.308Z,1006.71
2018-06-16T05:49:52.297Z,1006.7
2018-06-16T05:50:52.286Z,1006.73
2018-06-16T05:51:52.279Z,1006.72
2018-06-16T05:52:52.267Z,1006.71
2018-06-16T05:53:52.261Z,1006.76
2018-06-16T05:54:52.247Z,1006.7
2018-06-16T05:55:52.240Z,1006.76
2018-06-16T05:56:52.227Z,1006.82
2018-06-16T05:57:52.219Z,1006.78
2018-06-16T05:58:52.208Z,1006.8
2018-06-16T05:59:52.197Z,1006.78
2018-06-16T06:00:52.186Z,1006.8
2018-06-16T06:01:52.187Z,1006.82
2018-06-16T06:02:52.168Z,1006.84
2018-06-16T06:03:52.160Z,1006.83
2018-06-16T06:04:52.148Z,1006.81
2018-06-16T06:05:52.139Z,1006.81
2018-06-16T06:06:52.128Z,1006.78
2018-06-16T06:07:52.121Z,1006.79
2018-06-16T06:08:52.113Z,1006.79
2018-06-16T06:09:52.101Z,1006.82
2018-06-16T06:10:52.095Z,1006.78
2018-06-16T06:11:52.081Z,1006.82
2018-06-16T06:12:52.072Z,1006.82
2018-06-16T06:13:52.061Z,1006.79
2018-06-16T06:14:52.054Z,1006.84
2018-06-16T06:15:52.111Z,1006.84
2018-06-16T06:16:52.032Z,1006.81
2018-06-16T06:17:52.021Z,1006.86
2018-06-16T06:18:52.015Z,1006.85
2018-06-16T06:19:52.005Z,1006.89
2018-06-16T06:20:51.995Z,1006.89
2018-06-16T06:21:51.987Z,1006.89
2018-06-16T06:22:51.974Z,1006.89
2018-06-16T06:23:51.967Z,1006.91
2018-06-16T06:24:51.959Z,1006.89
2018-06-16T06:25:51.947Z,1006.86
2018-06-16T06:26:51.939Z,1006.9
2018-06-16T06:27:51.927Z,1006.92
2018-06-16T06:28:51.924Z,1006.89
2018-06-16T06:29:51.910Z,1006.92
2018-06-16T06:30:51.905Z,1006.92
2018-06-16T06:31:51.897Z,1006.9
2018-06-16T06:32:51.884Z,1006.92
2018-06-16T06:33:51.877Z,1006.92
2018-06-16T06:34:51.869Z,1006.9
2018-06-16T06:35:51.858Z,1006.92
2018-06-16T06:36:51.847Z,1006.94
2018-06-16T06:37:51.851Z,1006.95
2018-06-16T06:38:51.829Z,1006.93
2018-06-16T06:39:51.822Z,1006.9
2018-06-16T06:40:51.820Z,1006.91
2018-06-16T06:41:51.803Z,1006.89
2018-06-16T06:42:51.796Z,1006.89
2018-06-16T06:43:51.787Z,1006.91
2018-06-16T06:44:51.777Z,1006.92
2018-06-16T06:45:51.777Z,1006.94
2018-06-16T06:46:51.760Z,1006.91
2018-06-16T06:47:51.750Z,1006.96
2018-06-16T06:48:51.742Z,1006.96
2018-06-16T06:49:51.737Z,1006.95
2018-06-16T06:50:51.726Z,1006.96
2018-06-16T06:51:51.715Z,1006.95
2018-06-16T06:52:51.712Z,1006.94
2018-06-16T06:53:51.700Z,1006.97
2018-06-16T06:54:51.692Z,1006.95
2018-06-16T06:55:51.682Z,1006.94
2018-06-16T06:56:51.675Z,1006.94
2018-06-16T06:57:51.708Z,1006.95
2018-06-16T06:58:51.659Z,1006.99
2018-06-16T06:59:51.647Z,1007.02
2018-06-16T07:00:51.640Z,1007.02
2018-06-16T07:01:51.630Z,1007.02
2018-06-16T07:02:51.621Z,1007.04
2018-06-16T07:03:51.614Z,1006.99
2018-06-16T07:04:51.605Z,1007.06
2018-06-16T07:05:51.597Z,1007.07
2018-06-16T07:06:51.588Z,1007.06
2018-06-16T07:07:51.578Z,1007.03
2018-06-16T07:08:51.570Z,1007.05
2018-06-16T07:09:51.562Z,1007.08
2018-06-16T07:10:51.627Z,1007.06
2018-06-16T07:11:51.546Z,1007.03
2018-06-16T07:12:51.540Z,1007.03
2018-06-16T07:13:51.530Z,1006.99
2018-06-16T07:14:51.520Z,1007.02
2018-06-16T07:15:51.512Z,1007.06
2018-06-16T07:16:51.505Z,1007.11
2018-06-16T07:17:51.499Z,1007.01
2018-06-16T07:18:51.488Z,1007.14
2018-06-16T07:19:51.481Z,1007.14
2018-06-16T07:20:51.472Z,1007.02
2018-06-16T07:21:51.464Z,1007.04
2018-06-16T07:22:51.457Z,1007.01
2018-06-16T07:23:51.452Z,1007.01
2018-06-16T07:24:51.445Z,1007.04
2018-06-16T07:25:51.434Z,1007.08
2018-06-16T07:26:51.428Z,1007.06
2018-06-16T07:27:51.418Z,1007.05
2018-06-16T07:28:51.411Z,1007.02
2018-06-16T07:29:51.405Z,1007.06
2018-06-16T07:30:51.396Z,1007.05
2018-06-16T07:31:51.389Z,1007.07
2018-06-16T07:32:51.382Z,1007.08
2018-06-16T07:33:51.375Z,1007.05
2018-06-16T07:34:51.367Z,1007.13
2018-06-16T07:35:51.357Z,1007.15
2018-06-16T07:36:51.351Z,1007.12
2018-06-16T07:37:51.344Z,1007.15
2018-06-16T07:38:51.358Z,1007.16
2018-06-16T07:39:51.331Z,1007.19
2018-06-16T07:40:51.326Z,1007.19
2018-06-16T07:41:51.318Z,1007.19
2018-06-16T07:42:51.311Z,1007.22
2018-06-16T07:43:51.304Z,1007.22
2018-06-16T07:44:51.297Z,1007.2
2018-06-16T07:45:51.291Z,1007.21
2018-06-16T07:46:51.283Z,1007.22
2018-06-16T07:47:51.280Z,1007.25
2018-06-16T07:48:51.337Z,1007.23
2018-06-16T07:49:51.273Z,1007.2
2018-06-16T07:50:51.258Z,1007.2
2018-06-16T07:51:51.263Z,1007.24
2018-06-16T07:52:51.248Z,1007.29
2018-06-16T07:53:51.241Z,1007.32
2018-06-16T07:54:51.238Z,1007.32
2018-06-16T07:55:51.229Z,1007.3
2018-06-16T07:56:51.260Z,1007.33
2018-06-16T07:57:51.220Z,1007.27
2018-06-16T07:58:51.218Z,1007.27
2018-06-16T07:59:51.208Z,1007.27
2018-06-16T08:00:51.200Z,1007.26
2018-06-16T08:01:51.195Z,1007.28
2018-06-16T08:02:51.253Z,1007.27
2018-06-16T08:03:51.190Z,1007.34
2018-06-16T08:04:51.180Z,1007.34
2018-06-16T08:05:51.176Z,1007.29
2018-06-16T08:06:51.171Z,1007.33
2018-06-16T08:07:51.165Z,1007.3
2018-06-16T08:08:51.213Z,1007.25
2018-06-16T08:09:51.157Z,1007.28
2018-06-16T08:10:51.155Z,1007.25
2018-06-16T08:11:51.149Z,1007.21
2018-06-16T08:12:51.232Z,1007.18
2018-06-16T08:13:51.145Z,1007.18
2018-06-16T08:14:51.143Z,1007.23
2018-06-16T08:15:51.136Z,1007.2
2018-06-16T08:16:51.142Z,1007.18
2018-06-16T08:17:51.127Z,1007.12
2018-06-16T08:18:51.171Z,1007.14
2018-06-16T08:19:51.117Z,1007.14
2018-06-16T08:20:51.113Z,1007.11
2018-06-16T08:21:51.110Z,1007.13
2018-06-16T08:22:51.104Z,1007.11
2018-06-16T08:23:51.100Z,1007.12
2018-06-16T08:24:51.098Z,1007.13
2018-06-16T08:25:51.094Z,1007.14
2018-06-16T08:26:51.089Z,1007.13
2018-06-16T08:27:51.084Z,1007.08
2018-06-16T08:28:51.082Z,1007.07
2018-06-16T08:29:51.075Z,1007.08
2018-06-16T08:30:51.073Z,1007.13
2018-06-16T08:31:51.070Z,1007.13
2018-06-16T08:32:51.065Z,1007.13
2018-06-16T08:33:51.061Z,1007.13
2018-06-16T08:34:51.077Z,1007.16
2018-06-16T08:35:51.050Z,1007.17
2018-06-16T08:36:51.047Z,1007.16
2018-06-16T08:37:51.041Z,1007.16
2018-06-16T08:38:51.038Z,1007.17
2018-06-16T08:39:51.033Z,1007.21
2018-06-16T08:40:51.029Z,1007.12
2018-06-16T08:41:51.024Z,1007.15
2018-06-16T08:42:51.018Z,1007.18
2018-06-16T08:43:51.015Z,1007.19
2018-06-16T08:44:51.009Z,1007.2
2018-06-16T08:45:51.004Z,1007.31
2018-06-16T08:46:51.001Z,1007.25
2018-06-16T08:47:50.995Z,1007.26
2018-06-16T08:48:50.994Z,1007.29
2018-06-16T08:49:50.986Z,1007.31
2018-06-16T08:50:50.983Z,1007.26
2018-06-16T08:51:50.974Z,1007.27
2018-06-16T08:52:50.970Z,1007.33
2018-06-16T08:53:50.968Z,1007.37
2018-06-16T08:54:50.961Z,1007.39
2018-06-16T08:55:50.957Z,1007.38
2018-06-16T08:56:50.951Z,1007.23
2018-06-16T08:57:50.946Z,1007.25
2018-06-16T08:58:50.944Z,1007.26
2018-06-16T08:59:50.939Z,1007.26
2018-06-16T09:00:51.141Z,1007.36
2018-06-16T09:01:50.928Z,1007.35
2018-06-16T09:02:50.922Z,1007.43
2018-06-16T09:03:50.916Z,1007.37
2018-06-16T09:04:50.915Z,1007.35
2018-06-16T09:05:50.911Z,1007.4
2018-06-16T09:06:50.906Z,1007.36
2018-06-16T09:07:50.908Z,1007.35
2018-06-16T09:08:50.898Z,1007.38
2018-06-16T09:09:50.893Z,1007.36
2018-06-16T09:10:50.890Z,1007.31
2018-06-16T09:11:50.885Z,1007.34
2018-06-16T09:12:50.881Z,1007.31
2018-06-16T09:13:50.877Z,1007.25
2018-06-16T09:14:50.873Z,1007.29
2018-06-16T09:15:50.869Z,1007.27
2018-06-16T09:16:50.866Z,1007.3
2018-06-16T09:17:50.862Z,1007.31
2018-06-16T09:18:50.859Z,1007.31
2018-06-16T09:19:50.855Z,1007.31
2018-06-16T09:20:50.856Z,1007.31
2018-06-16T09:21:50.847Z,1007.27
2018-06-16T09:22:50.841Z,1007.32
2018-06-16T09:23:50.838Z,1007.45
2018-06-16T09:24:50.833Z,1007.28
2018-06-16T09:25:50.831Z,1007.49
2018-06-16T09:26:50.831Z,1007.44
2018-06-16T09:27:50.834Z,1007.46
2018-06-16T09:28:50.821Z,1007.51
2018-06-16T09:29:50.817Z,1007.57
2018-06-16T09:30:50.812Z,1007.6
2018-06-16T09:31:50.885Z,1007.58
2018-06-16T09:32:50.805Z,1007.56
2018-06-16T09:33:50.806Z,1007.56
2018-06-16T09:34:50.799Z,1007.55
2018-06-16T09:35:50.795Z,1007.41
2018-06-16T09:36:50.794Z,1007.42
2018-06-16T09:37:50.788Z,1007.4
2018-06-16T09:38:50.782Z,1007.34
2018-06-16T09:39:50.780Z,1007.38
2018-06-16T09:40:50.779Z,1007.39
2018-06-16T09:41:50.772Z,1007.39
2018-06-16T09:42:50.770Z,1007.44
2018-06-16T09:43:50.765Z,1007.4
2018-06-16T09:44:50.762Z,1007.36
2018-06-16T09:45:50.758Z,1007.3
2018-06-16T09:46:50.816Z,1007.32
2018-06-16T09:47:50.751Z,1007.31
2018-06-16T09:48:50.747Z,1007.32
2018-06-16T09:49:50.742Z,1007.3
2018-06-16T09:50:50.743Z,1007.24
2018-06-16T09:51:50.740Z,1007.26
2018-06-16T09:52:50.736Z,1007.2
2018-06-16T09:53:50.731Z,1007.2
2018-06-16T09:54:50.721Z,1007.22
2018-06-16T09:55:50.719Z,1007.22
2018-06-16T09:56:50.715Z,1007.25
2018-06-16T09:57:50.709Z,1007.23
2018-06-16T09:58:50.705Z,1007.22
2018-06-16T09:59:50.698Z,1007.24
2018-06-16T10:00:50.697Z,1007.25
2018-06-16T10:01:50.696Z,1007.22
2018-06-16T10:02:50.684Z,1007.4
2018-06-16T10:03:50.681Z,1007.22
2018-06-16T10:04:50.676Z,1007.32
2018-06-16T10:05:50.672Z,1007.26
2018-06-16T10:06:50.667Z,1007.28
2018-06-16T10:07:50.666Z,1007.34
2018-06-16T10:08:50.667Z,1007.34
2018-06-16T10:09:50.659Z,1007.4
2018-06-16T10:10:50.651Z,1007.33
2018-06-16T10:11:50.653Z,1007.41
2018-06-16T10:12:50.641Z,1007.3
2018-06-16T10:13:50.638Z,1007.26
2018-06-16T10:14:50.633Z,1007.24
2018-06-16T10:15:50.691Z,1007.33
2018-06-16T10:16:50.625Z,1007.38
2018-06-16T10:17:50.624Z,1007.3
2018-06-16T10:18:50.617Z,1007.41
2018-06-16T10:19:50.616Z,1007.43
2018-06-16T10:20:50.609Z,1007.37
2018-06-16T10:21:50.614Z,1007.46
2018-06-16T10:22:50.604Z,1007.33
2018-06-16T10:23:50.599Z,1007.35
2018-06-16T10:24:50.597Z,1007.33
2018-06-16T10:25:50.594Z,1007.33
2018-06-16T10:26:50.589Z,1007.29
2018-06-16T10:27:50.587Z,1007.38
2018-06-16T10:28:50.582Z,1007.34
2018-06-16T10:29:50.580Z,1007.3
2018-06-16T10:30:50.579Z,1007.34
2018-06-16T10:31:50.572Z,1007.38
2018-06-16T10:32:50.575Z,1007.38
2018-06-16T10:33:50.570Z,1007.34
2018-06-16T10:34:50.565Z,1007.36
2018-06-16T10:35:50.565Z,1007.36
2018-06-16T10:36:50.559Z,1007.35
2018-06-16T10:37:50.558Z,1007.28
2018-06-16T10:38:50.554Z,1007.17
2018-06-16T10:39:50.564Z,1007.28
2018-06-16T10:40:50.553Z,1007.14
2018-06-16T10:41:50.546Z,1007.22
2018-06-16T10:42:50.549Z,1007.23
2018-06-16T10:43:50.543Z,1007.25
2018-06-16T10:44:50.542Z,1007.23
2018-06-16T10:45:50.540Z,1007.21
2018-06-16T10:46:50.539Z,1007.12
2018-06-16T10:47:50.537Z,1007.15
2018-06-16T10:48:50.531Z,1007.1
2018-06-16T10:49:50.531Z,1007.1
2018-06-16T10:50:50.529Z,1007.1
2018-06-16T10:51:50.525Z,1007.07
2018-06-16T10:52:50.522Z,1007.04
2018-06-16T10:53:50.521Z,1007.02
2018-06-16T10:54:50.520Z,1007.06
2018-06-16T10:55:50.519Z,1006.97
2018-06-16T10:56:50.512Z,1007.03
2018-06-16T10:57:50.509Z,1007.03
2018-06-16T10:58:50.508Z,1006.98
2018-06-16T10:59:50.511Z,1006.99
2018-06-16T11:00:50.703Z,1006.98
2018-06-16T11:01:50.497Z,1006.95
2018-06-16T11:02:50.494Z,1006.99
2018-06-16T11:03:50.491Z,1007.01
2018-06-16T11:04:50.493Z,1007.01
2018-06-16T11:05:50.486Z,1007.04
2018-06-16T11:06:50.486Z,1007.02
2018-06-16T11:07:50.480Z,1007.02
2018-06-16T11:08:50.477Z,1007.07
2018-06-16T11:09:50.474Z,1007.11
2018-06-16T11:10:50.472Z,1007.11
2018-06-16T11:11:50.468Z,1007.12
2018-06-16T11:12:50.465Z,1007.16
2018-06-16T11:13:50.462Z,1007.15
2018-06-16T11:14:50.460Z,1007.11
2018-06-16T11:15:50.457Z,1007.1
2018-06-16T11:16:50.455Z,1007.04
2018-06-16T11:17:50.451Z,1007.09
2018-06-16T11:18:50.452Z,1007.07
2018-06-16T11:19:50.449Z,1007.06
2018-06-16T11:20:50.443Z,1007.05
2018-06-16T11:21:50.442Z,1007.06
2018-06-16T11:22:50.444Z,1007.08
2018-06-16T11:23:50.444Z,1007.02
2018-06-16T11:24:50.442Z,1007.01
2018-06-16T11:25:50.432Z,1007.01
2018-06-16T11:26:50.433Z,1007.04
2018-06-16T11:27:50.432Z,1007.01
2018-06-16T11:28:50.432Z,1007.02
2018-06-16T11:29:50.428Z,1007.04
2018-06-16T11:30:50.420Z,1007.05
2018-06-16T11:31:50.418Z,1006.99
2018-06-16T11:32:50.416Z,1006.98
2018-06-16T11:33:50.468Z,1007
2018-06-16T11:34:50.413Z,1006.96
2018-06-16T11:35:50.409Z,1006.96
2018-06-16T11:36:50.409Z,1006.94
2018-06-16T11:37:50.405Z,1006.87
2018-06-16T11:38:50.404Z,1006.87
2018-06-16T11:39:50.401Z,1006.85
2018-06-16T11:40:50.416Z,1006.89
2018-06-16T11:41:50.396Z,1006.91
2018-06-16T11:42:50.397Z,1006.94
2018-06-16T11:43:50.395Z,1006.88
2018-06-16T11:44:50.392Z,1006.88
2018-06-16T11:45:50.394Z,1006.86
2018-06-16T11:46:50.388Z,1006.84
2018-06-16T11:47:50.387Z,1006.8
2018-06-16T11:48:50.470Z,1006.81
2018-06-16T11:49:50.381Z,1006.8
2018-06-16T11:50:50.378Z,1006.78
2018-06-16T11:51:50.377Z,1006.78
2018-06-16T11:52:50.380Z,1006.82
2018-06-16T11:53:50.377Z,1006.76
2018-06-16T11:54:50.370Z,1006.81
2018-06-16T11:55:50.368Z,1006.81
2018-06-16T11:56:50.364Z,1006.83
2018-06-16T11:57:50.365Z,1006.82
2018-06-16T11:58:50.357Z,1006.75
2018-06-16T11:59:50.356Z,1006.87
2018-06-16T12:00:50.353Z,1006.84
2018-06-16T12:01:50.404Z,1006.79
2018-06-16T12:02:50.350Z,1006.8
2018-06-16T12:03:50.343Z,1006.81
2018-06-16T12:04:50.338Z,1006.81
2018-06-16T12:05:50.335Z,1006.7
2018-06-16T12:06:50.336Z,1006.76
2018-06-16T12:07:50.328Z,1006.7
2018-06-16T12:08:50.330Z,1006.78